Time;durP1;ratioP1;P1;durP2;ratioP2;P2;SDS_P1;SDS_P2;PMS_P1;PMS_P2;Temp;Humidity;BMP_temperature;BMP_pressure;BME280_temperature;BME280_humidity;BME280_pressure;Samples;Min_cycle;Max_cycle;Signal;HPM_P1;HPM_P2
2023/10/23 00:00:46;;;;;;;8.35;1.88;;;12.10;99.90;;;;;;5063304;28;20044;-86
2023/10/23 00:03:11;;;;;;;4.38;1.50;;;12.20;99.90;;;;;;5058830;28;20059;-86
2023/10/23 00:05:40;;;;;;;10.77;2.10;;;12.20;99.90;;;;;;5061935;28;20117;-86
2023/10/23 00:08:09;;;;;;;9.32;1.92;;;12.20;99.90;;;;;;5065437;28;20037;-87
2023/10/23 00:10:34;;;;;;;6.30;1.80;;;12.20;99.90;;;;;;5060978;28;20066;-87
2023/10/23 00:13:03;;;;;;;4.30;1.70;;;12.20;99.90;;;;;;5065931;28;20040;-85
2023/10/23 00:15:28;;;;;;;10.65;1.70;;;12.20;99.90;;;;;;5062794;28;20047;-85
2023/10/23 00:17:57;;;;;;;6.18;1.80;;;12.20;99.90;;;;;;5065424;28;20107;-90
2023/10/23 00:20:22;;;;;;;7.50;1.80;;;12.20;99.90;;;;;;5061491;28;20204;-86
2023/10/23 00:22:48;;;;;;;7.50;1.88;;;12.20;99.90;;;;;;5062106;28;20055;-85
2023/10/23 00:25:14;;;;;;;7.88;1.98;;;12.30;99.90;;;;;;5061402;28;20057;-85
2023/10/23 00:27:42;;;;;;;7.25;2.50;;;12.30;99.90;;;;;;5059987;28;20488;-85
2023/10/23 00:30:08;;;;;;;10.30;1.80;;;12.20;99.90;;;;;;5062765;28;20477;-85
2023/10/23 00:32:34;;;;;;;5.95;1.63;;;12.20;99.90;;;;;;5061991;28;20048;-85
2023/10/23 00:35:05;;;;;;;7.82;1.88;;;12.20;99.90;;;;;;5066167;28;20408;-85
2023/10/23 00:37:34;;;;;;;5.68;1.77;;;12.30;99.90;;;;;;5060028;28;20032;-85
2023/10/23 00:40:00;;;;;;;8.68;1.83;;;12.20;99.90;;;;;;5064827;28;20025;-87
2023/10/23 00:42:27;;;;;;;4.45;1.63;;;12.20;99.90;;;;;;5063748;28;20036;-84
2023/10/23 00:44:52;;;;;;;9.48;2.78;;;12.20;99.90;;;;;;5061553;28;20102;-85
2023/10/23 00:47:21;;;;;;;2.08;1.58;;;12.20;99.90;;;;;;5064176;28;20064;-84
2023/10/23 00:49:46;;;;;;;7.43;2.00;;;12.20;99.90;;;;;;5064619;28;20021;-85
2023/10/23 00:52:12;;;;;;;5.22;1.60;;;12.10;99.90;;;;;;5058329;28;20040;-85
2023/10/23 00:54:42;;;;;;;4.10;2.17;;;12.10;99.90;;;;;;5063579;28;20540;-85
2023/10/23 00:57:08;;;;;;;5.13;1.65;;;12.10;99.90;;;;;;5065426;28;20473;-85
2023/10/23 00:59:34;;;;;;;4.22;1.63;;;12.10;99.90;;;;;;5062654;28;20465;-85
2023/10/23 01:02:00;;;;;;;4.35;1.92;;;12.10;99.90;;;;;;5054959;28;20116;-85
2023/10/23 01:04:27;;;;;;;3.92;1.80;;;12.10;99.90;;;;;;5064341;28;20115;-85
2023/10/23 01:06:52;;;;;;;3.95;2.00;;;12.10;99.90;;;;;;5062039;28;20086;-84
2023/10/23 01:09:18;;;;;;;5.78;1.75;;;12.00;99.90;;;;;;5064512;28;20476;-86
2023/10/23 01:11:44;;;;;;;3.72;1.90;;;12.00;99.90;;;;;;5060177;28;20043;-88
2023/10/23 01:14:09;;;;;;;8.93;2.50;;;11.90;99.90;;;;;;5060632;28;20510;-84
2023/10/23 01:16:35;;;;;;;6.55;2.65;;;11.90;99.90;;;;;;5060715;28;20346;-85
2023/10/23 01:19:01;;;;;;;2.78;1.58;;;11.90;99.90;;;;;;5066742;28;20550;-85
2023/10/23 01:21:27;;;;;;;11.57;2.42;;;11.90;99.90;;;;;;5063417;28;20025;-85
2023/10/23 01:23:54;;;;;;;3.45;1.88;;;11.90;99.90;;;;;;5057909;28;20054;-85
2023/10/23 01:26:23;;;;;;;4.75;1.58;;;11.80;99.90;;;;;;5062404;28;20034;-84
2023/10/23 01:28:49;;;;;;;6.45;1.92;;;11.80;99.90;;;;;;5061967;28;20025;-84
2023/10/23 01:31:14;;;;;;;6.13;2.05;;;11.80;99.90;;;;;;5064056;28;20041;-85
2023/10/23 01:33:41;;;;;;;3.88;1.70;;;11.80;99.90;;;;;;5065718;28;20072;-86
2023/10/23 01:36:12;;;;;;;8.40;2.30;;;11.70;99.90;;;;;;5062168;28;20035;-87
2023/10/23 01:38:42;;;;;;;7.25;1.80;;;11.70;99.90;;;;;;5054831;28;20048;-86
2023/10/23 01:41:08;;;;;;;4.03;1.85;;;11.70;99.90;;;;;;5063745;28;20036;-86
2023/10/23 01:43:34;;;;;;;8.23;2.15;;;11.80;99.90;;;;;;5064331;28;20028;-86
2023/10/23 01:45:59;;;;;;;11.82;2.08;;;11.80;99.90;;;;;;5057892;28;20029;-86
2023/10/23 01:48:26;;;;;;;8.48;2.40;;;11.70;99.90;;;;;;5066321;28;20028;-85
2023/10/23 01:50:55;;;;;;;2.58;2.05;;;11.70;99.90;;;;;;5061496;28;20025;-87
2023/10/23 01:53:22;;;;;;;4.30;1.92;;;11.70;99.90;;;;;;5065870;28;20058;-86
2023/10/23 01:55:50;;;;;;;3.10;1.77;;;11.70;99.90;;;;;;5059872;28;20029;-86
2023/10/23 01:58:19;;;;;;;6.15;2.10;;;11.60;99.90;;;;;;5063884;28;20028;-86
2023/10/23 02:00:44;;;;;;;4.15;2.42;;;11.70;99.90;;;;;;5065244;28;20047;-85
2023/10/23 02:03:13;;;;;;;4.65;2.00;;;11.60;99.90;;;;;;5072040;28;20218;-87
2023/10/23 02:05:38;;;;;;;3.28;2.55;;;11.70;99.90;;;;;;5064454;28;20041;-86
2023/10/23 02:08:07;;;;;;;7.57;2.85;;;11.70;99.90;;;;;;5066277;28;20035;-87
2023/10/23 02:10:32;;;;;;;2.17;1.92;;;11.70;99.90;;;;;;5061676;28;20041;-84
2023/10/23 02:12:58;;;;;;;7.65;2.45;;;11.70;99.90;;;;;;5067644;28;20591;-85
2023/10/23 02:15:26;;;;;;;7.35;2.25;;;11.70;99.90;;;;;;5066864;28;20077;-85
2023/10/23 02:17:52;;;;;;;6.45;2.50;;;11.60;99.90;;;;;;5063351;28;20060;-86
2023/10/23 02:20:18;;;;;;;6.43;2.30;;;11.60;99.90;;;;;;5070107;28;20063;-87
2023/10/23 02:22:51;;;;;;;3.75;2.45;;;11.70;99.90;;;;;;5065916;28;20032;-85
2023/10/23 02:25:17;;;;;;;6.10;2.28;;;11.60;99.90;;;;;;5065530;28;20035;-87
2023/10/23 02:27:45;;;;;;;2.78;1.98;;;11.60;99.90;;;;;;5068164;28;20028;-86
2023/10/23 02:30:13;;;;;;;3.75;2.20;;;11.60;99.90;;;;;;5062539;28;20021;-85
2023/10/23 02:32:38;;;;;;;2.00;1.77;;;11.60;99.90;;;;;;5066926;28;20110;-85
2023/10/23 02:35:04;;;;;;;6.55;2.28;;;11.50;99.90;;;;;;5063888;28;20040;-85
2023/10/23 02:37:30;;;;;;;2.33;2.13;;;11.50;99.90;;;;;;5056646;28;20025;-86
2023/10/23 02:39:56;;;;;;;5.70;2.58;;;11.50;99.90;;;;;;5066748;28;20300;-85
2023/10/23 02:42:25;;;;;;;5.60;2.35;;;11.50;99.90;;;;;;5059279;28;20031;-84
2023/10/23 02:44:51;;;;;;;10.70;2.20;;;11.60;99.90;;;;;;5063852;28;20090;-85
2023/10/23 02:47:22;;;;;;;8.55;2.78;;;11.70;99.90;;;;;;5067457;28;21207;-89
2023/10/23 02:49:48;;;;;;;2.63;2.25;;;11.80;99.90;;;;;;5066797;28;20024;-85
2023/10/23 02:52:15;;;;;;;5.10;2.00;;;11.90;99.90;;;;;;5068366;28;20489;-85
2023/10/23 02:54:41;;;;;;;3.50;1.90;;;11.90;99.90;;;;;;5061203;28;20025;-85
2023/10/23 02:57:09;;;;;;;4.70;2.25;;;11.90;99.90;;;;;;5063926;28;20400;-87
2023/10/23 02:59:34;;;;;;;2.90;2.15;;;11.90;99.90;;;;;;5057582;28;20466;-84
2023/10/23 03:02:03;;;;;;;5.07;2.85;;;11.80;99.90;;;;;;5064088;28;20052;-85
2023/10/23 03:04:29;;;;;;;2.92;2.08;;;11.80;99.90;;;;;;5064090;28;20111;-85
2023/10/23 03:06:58;;;;;;;2.78;1.67;;;11.80;99.90;;;;;;5060393;28;20116;-85
2023/10/23 03:09:26;;;;;;;2.30;1.80;;;11.80;99.90;;;;;;5068411;28;20024;-85
2023/10/23 03:11:52;;;;;;;3.78;1.90;;;11.80;99.90;;;;;;5071736;28;20553;-85
2023/10/23 03:14:17;;;;;;;2.15;1.95;;;11.80;99.90;;;;;;5061912;28;20025;-85
2023/10/23 03:16:43;;;;;;;1.70;1.60;;;11.70;99.90;;;;;;5067404;28;20393;-85
2023/10/23 03:19:08;;;;;;;2.30;1.58;;;11.70;99.90;;;;;;5063242;28;20021;-86
2023/10/23 03:21:34;;;;;;;4.32;1.63;;;11.80;99.90;;;;;;5067272;28;20043;-85
2023/10/23 03:24:00;;;;;;;2.25;1.80;;;11.70;99.90;;;;;;5069201;28;20491;-85
2023/10/23 03:26:27;;;;;;;4.68;1.48;;;11.70;99.90;;;;;;5068238;28;20050;-85
2023/10/23 03:28:54;;;;;;;4.60;2.08;;;11.70;99.90;;;;;;5066658;28;20056;-87
2023/10/23 03:31:19;;;;;;;2.08;1.70;;;11.70;99.90;;;;;;5065948;28;20041;-85
2023/10/23 03:33:48;;;;;;;4.82;2.08;;;11.70;99.90;;;;;;5067846;28;20040;-85
2023/10/23 03:36:14;;;;;;;6.25;1.80;;;11.70;99.90;;;;;;5068254;28;20032;-85
2023/10/23 03:38:39;;;;;;;6.40;1.92;;;11.70;99.90;;;;;;5064878;28;20384;-86
2023/10/23 03:41:05;;;;;;;6.03;1.98;;;11.70;99.90;;;;;;5059808;28;20020;-87
2023/10/23 03:43:30;;;;;;;3.78;1.95;;;11.80;99.90;;;;;;5059149;28;20047;-87
2023/10/23 03:46:00;;;;;;;1.45;1.35;;;11.80;99.90;;;;;;5062381;28;20024;-84
2023/10/23 03:48:26;;;;;;;4.40;1.70;;;11.80;99.90;;;;;;5064630;28;20438;-86
2023/10/23 03:50:53;;;;;;;2.15;1.80;;;11.80;99.90;;;;;;5065469;28;20052;-86
2023/10/23 03:53:18;;;;;;;1.80;1.30;;;11.80;99.90;;;;;;5053051;28;20137;-85
2023/10/23 03:55:44;;;;;;;3.58;1.80;;;11.70;99.90;;;;;;5067238;28;20056;-85
2023/10/23 03:58:10;;;;;;;2.47;1.90;;;11.70;99.90;;;;;;5064269;28;20524;-85
2023/10/23 04:00:35;;;;;;;4.20;1.63;;;11.70;99.90;;;;;;5065563;28;20035;-85
2023/10/23 04:03:03;;;;;;;6.80;2.33;;;11.60;99.90;;;;;;5064184;28;20488;-86
2023/10/23 04:05:30;;;;;;;3.25;1.73;;;11.70;99.90;;;;;;5066921;28;20028;-85
2023/10/23 04:07:56;;;;;;;4.90;1.90;;;11.60;99.90;;;;;;5067231;28;20120;-86
2023/10/23 04:10:21;;;;;;;1.77;1.60;;;11.60;99.90;;;;;;5062836;28;20499;-85
2023/10/23 04:12:47;;;;;;;2.97;1.48;;;11.60;99.90;;;;;;5064789;28;20059;-85
2023/10/23 04:15:13;;;;;;;3.58;1.55;;;11.60;99.90;;;;;;5067475;28;20097;-86
2023/10/23 04:17:38;;;;;;;3.00;2.65;;;11.60;99.90;;;;;;5056084;28;20024;-86
2023/10/23 04:20:07;;;;;;;6.55;2.65;;;11.50;99.90;;;;;;5069624;28;20116;-85
2023/10/23 04:22:33;;;;;;;2.13;1.85;;;11.60;99.90;;;;;;5066629;28;20456;-85
2023/10/23 04:25:02;;;;;;;4.68;1.92;;;11.50;99.90;;;;;;5061094;28;20028;-85
2023/10/23 04:27:27;;;;;;;4.35;2.28;;;11.50;99.90;;;;;;5061474;28;20063;-86
2023/10/23 04:29:53;;;;;;;3.60;2.20;;;11.50;99.90;;;;;;5066408;28;20056;-85
2023/10/23 04:32:19;;;;;;;3.55;2.15;;;11.50;99.90;;;;;;5057782;28;20060;-85
2023/10/23 04:34:44;;;;;;;4.13;2.60;;;11.50;99.90;;;;;;5060446;28;20371;-86
2023/10/23 04:37:10;;;;;;;3.25;2.28;;;11.50;99.90;;;;;;5057454;28;20108;-86
2023/10/23 04:39:36;;;;;;;4.95;1.95;;;11.40;99.90;;;;;;5060939;28;20146;-85
2023/10/23 04:42:04;;;;;;;3.13;2.10;;;11.50;99.90;;;;;;5066989;28;20517;-86
2023/10/23 04:44:34;;;;;;;2.90;1.85;;;11.40;99.90;;;;;;5063617;28;20028;-85
2023/10/23 04:47:02;;;;;;;5.80;1.60;;;11.30;99.90;;;;;;5062750;28;20048;-87
2023/10/23 04:49:28;;;;;;;5.80;2.10;;;11.40;99.90;;;;;;5057493;28;20027;-85
2023/10/23 04:51:54;;;;;;;3.50;2.03;;;11.40;99.90;;;;;;5066185;28;20028;-86
2023/10/23 04:54:22;;;;;;;1.80;1.70;;;11.50;99.90;;;;;;5064694;28;20040;-85
2023/10/23 04:56:48;;;;;;;6.28;1.85;;;11.50;99.90;;;;;;5060718;28;20032;-85
2023/10/23 04:59:16;;;;;;;2.08;1.63;;;11.50;99.90;;;;;;5064640;28;20024;-85
2023/10/23 05:01:42;;;;;;;2.78;1.70;;;11.60;99.90;;;;;;5066105;28;20028;-85
2023/10/23 05:04:07;;;;;;;2.10;1.40;;;11.60;99.90;;;;;;5058808;28;20025;-86
2023/10/23 05:06:36;;;;;;;2.53;1.73;;;11.60;99.90;;;;;;5062782;28;20408;-85
2023/10/23 05:09:04;;;;;;;4.18;1.90;;;11.50;99.90;;;;;;5063709;28;20028;-85
2023/10/23 05:11:32;;;;;;;3.22;1.85;;;11.50;99.90;;;;;;5067785;28;20139;-85
2023/10/23 05:13:58;;;;;;;2.40;1.77;;;11.60;99.90;;;;;;5063454;28;20039;-85
2023/10/23 05:16:24;;;;;;;5.18;2.05;;;11.50;99.90;;;;;;5064045;28;20025;-85
2023/10/23 05:18:50;;;;;;;2.83;1.60;;;11.60;99.90;;;;;;5064644;28;20385;-86
2023/10/23 05:21:18;;;;;;;3.53;1.90;;;11.50;99.90;;;;;;5063043;28;20503;-85
2023/10/23 05:23:44;;;;;;;4.15;1.30;;;11.50;99.90;;;;;;5056326;28;20621;-85
2023/10/23 05:26:14;;;;;;;1.83;1.45;;;11.50;99.90;;;;;;5062606;28;20106;-85
2023/10/23 05:28:41;;;;;;;1.52;1.35;;;11.50;99.90;;;;;;5058466;28;22946;-85
2023/10/23 05:31:12;;;;;;;3.35;1.70;;;11.50;99.90;;;;;;5059192;28;20132;-85
2023/10/23 05:33:38;;;;;;;4.07;1.58;;;11.50;99.90;;;;;;5053743;28;20405;-86
2023/10/23 05:36:05;;;;;;;4.53;1.60;;;11.50;99.90;;;;;;5054725;28;20017;-85
2023/10/23 05:38:31;;;;;;;2.28;1.73;;;11.50;99.90;;;;;;5057906;28;20742;-86
2023/10/23 05:40:58;;;;;;;6.65;1.70;;;11.50;99.90;;;;;;5062002;28;20024;-86
2023/10/23 05:43:27;;;;;;;2.85;1.88;;;11.50;99.90;;;;;;5064596;28;20036;-85
2023/10/23 05:45:56;;;;;;;5.28;1.85;;;11.50;99.90;;;;;;5067168;28;20107;-86
2023/10/23 05:48:22;;;;;;;2.58;1.70;;;11.50;99.90;;;;;;5064882;28;20021;-86
2023/10/23 05:51:01;;;;;;;4.30;1.63;;;11.50;99.90;;;;;;5061580;28;20092;-86
2023/10/23 05:53:27;;;;;;;1.85;1.60;;;11.50;99.90;;;;;;5060246;28;20060;-84
2023/10/23 05:55:54;;;;;;;1.95;1.50;;;11.50;99.90;;;;;;5063909;28;20119;-85
2023/10/23 05:58:20;;;;;;;1.20;1.10;;;11.50;99.90;;;;;;5057452;28;20488;-85
2023/10/23 06:00:45;;;;;;;2.10;1.40;;;11.40;99.90;;;;;;5061802;28;20064;-86
2023/10/23 06:03:12;;;;;;;5.07;1.88;;;11.40;99.90;;;;;;5053855;28;20040;-86
2023/10/23 06:05:42;;;;;;;6.47;2.10;;;11.40;99.90;;;;;;5053203;28;20279;-86
2023/10/23 06:08:09;;;;;;;3.67;1.60;;;11.50;99.90;;;;;;5056952;28;20028;-85
2023/10/23 06:10:46;;;;;;;3.22;1.60;;;11.50;99.90;;;;;;5054033;28;20032;-85
2023/10/23 06:13:12;;;;;;;5.60;2.15;;;11.50;99.90;;;;;;5059919;28;20033;-85
2023/10/23 06:15:38;;;;;;;2.53;2.22;;;11.60;99.90;;;;;;5048695;28;20036;-85
2023/10/23 06:18:04;;;;;;;5.78;1.80;;;11.70;99.90;;;;;;5054880;28;20025;-86
2023/10/23 06:20:32;;;;;;;1.95;1.50;;;11.70;99.90;;;;;;5057449;28;20518;-85
2023/10/23 06:22:58;;;;;;;8.85;2.20;;;11.70;99.90;;;;;;5057707;28;20041;-84
2023/10/23 06:25:25;;;;;;;7.15;2.03;;;11.70;99.90;;;;;;5055966;28;20029;-85
2023/10/23 06:27:50;;;;;;;7.03;2.22;;;11.70;99.90;;;;;;5054908;28;20032;-84
2023/10/23 06:30:17;;;;;;;4.05;2.00;;;11.70;99.90;;;;;;5056342;28;20542;-84
2023/10/23 06:32:43;;;;;;;4.32;1.85;;;11.70;99.90;;;;;;5058735;28;20385;-85
2023/10/23 06:35:09;;;;;;;4.57;2.55;;;11.70;99.90;;;;;;5052136;28;20107;-85
2023/10/23 06:37:34;;;;;;;5.80;2.10;;;11.70;99.90;;;;;;5051149;28;20036;-85
2023/10/23 06:40:00;;;;;;;8.80;2.15;;;11.70;99.90;;;;;;5054615;28;20489;-85
2023/10/23 06:42:26;;;;;;;3.65;2.15;;;11.70;99.90;;;;;;5062425;28;20116;-84
2023/10/23 06:44:52;;;;;;;3.95;2.38;;;11.80;99.90;;;;;;5053313;28;20033;-84
2023/10/23 06:47:21;;;;;;;4.47;1.90;;;11.80;99.90;;;;;;5052761;28;20025;-85
2023/10/23 06:49:46;;;;;;;6.43;2.05;;;11.70;99.90;;;;;;5064244;28;20036;-86
2023/10/23 06:52:13;;;;;;;8.18;2.38;;;11.80;99.90;;;;;;5061282;28;20020;-84
2023/10/23 06:54:39;;;;;;;2.13;1.67;;;11.80;99.90;;;;;;5056588;28;20129;-85
2023/10/23 06:57:08;;;;;;;5.57;1.92;;;11.80;99.90;;;;;;5053832;28;20457;-84
2023/10/23 06:59:37;;;;;;;6.32;2.80;;;11.80;99.90;;;;;;5067711;28;20581;-85
2023/10/23 07:02:02;;;;;;;4.00;2.60;;;11.80;99.90;;;;;;5059912;28;20039;-85
2023/10/23 07:04:29;;;;;;;2.85;2.03;;;11.80;99.90;;;;;;5063880;28;20032;-84
2023/10/23 07:06:55;;;;;;;4.18;2.28;;;11.90;99.90;;;;;;5064167;28;20055;-85
2023/10/23 07:09:21;;;;;;;2.20;1.90;;;11.90;99.90;;;;;;5065167;28;20052;-83
2023/10/23 07:11:48;;;;;;;6.60;2.85;;;11.90;99.90;;;;;;5063780;28;20028;-83
2023/10/23 07:14:14;;;;;;;11.18;2.13;;;11.90;99.90;;;;;;5053430;28;20394;-83
2023/10/23 07:16:40;;;;;;;5.50;2.30;;;11.90;99.90;;;;;;5063980;28;20105;-84
2023/10/23 07:19:06;;;;;;;3.80;2.10;;;11.90;99.90;;;;;;5068788;28;20469;-84
2023/10/23 07:21:32;;;;;;;2.15;1.90;;;11.90;99.90;;;;;;5065627;28;20393;-83
2023/10/23 07:23:58;;;;;;;6.10;2.10;;;11.90;99.90;;;;;;5059377;28;20108;-85
2023/10/23 07:26:24;;;;;;;2.35;1.80;;;12.00;99.90;;;;;;5061181;28;20032;-83
2023/10/23 07:28:50;;;;;;;2.17;1.75;;;12.00;99.90;;;;;;5062500;28;20030;-82
2023/10/23 07:31:16;;;;;;;4.00;2.00;;;12.00;99.90;;;;;;5061377;28;20060;-82
2023/10/23 07:33:43;;;;;;;3.70;2.17;;;12.00;99.90;;;;;;5063555;28;20043;-84
2023/10/23 07:36:13;;;;;;;1.98;1.85;;;12.00;99.90;;;;;;5066721;28;20495;-83
2023/10/23 07:38:41;;;;;;;2.50;1.95;;;12.00;99.90;;;;;;5063569;28;20071;-85
2023/10/23 07:41:07;;;;;;;3.88;1.67;;;12.10;99.90;;;;;;5082148;28;20091;-83
2023/10/23 07:43:33;;;;;;;2.47;1.80;;;12.10;99.90;;;;;;5065585;28;20033;-84
2023/10/23 07:46:08;;;;;;;3.38;2.03;;;12.10;99.90;;;;;;5065134;28;20033;-83
2023/10/23 07:48:33;;;;;;;2.30;1.70;;;12.20;99.90;;;;;;5065369;28;20036;-83
2023/10/23 07:51:00;;;;;;;3.83;1.63;;;12.10;99.90;;;;;;5061004;28;20306;-84
2023/10/23 07:53:29;;;;;;;4.00;1.75;;;12.10;99.90;;;;;;5067375;28;20554;-82
2023/10/23 07:55:55;;;;;;;4.10;1.88;;;12.10;99.90;;;;;;5066201;28;20032;-83
2023/10/23 07:58:22;;;;;;;2.85;1.52;;;12.20;99.90;;;;;;5068340;28;20030;-83
2023/10/23 08:00:51;;;;;;;3.20;1.63;;;12.30;99.90;;;;;;5064000;28;20389;-83
2023/10/23 08:03:17;;;;;;;1.83;1.70;;;12.30;99.90;;;;;;5063505;28;20343;-83
2023/10/23 08:05:42;;;;;;;4.22;1.90;;;12.40;99.90;;;;;;5061909;28;20028;-83
2023/10/23 08:08:08;;;;;;;1.98;1.50;;;12.40;99.90;;;;;;5059127;28;20031;-86
2023/10/23 08:10:34;;;;;;;2.05;1.45;;;12.40;99.90;;;;;;5056926;28;20651;-85
2023/10/23 08:12:59;;;;;;;2.65;1.33;;;12.30;99.90;;;;;;5058461;28;20048;-85
2023/10/23 08:15:25;;;;;;;1.60;1.50;;;12.40;99.90;;;;;;5066824;28;20025;-85
2023/10/23 08:17:51;;;;;;;2.40;1.20;;;12.30;99.90;;;;;;5065503;28;20030;-85
2023/10/23 08:20:17;;;;;;;3.47;1.50;;;12.40;99.90;;;;;;5058867;28;20461;-85
2023/10/23 08:22:46;;;;;;;7.30;1.70;;;12.40;99.90;;;;;;5060078;28;20021;-86
2023/10/23 08:25:13;;;;;;;2.22;1.50;;;12.40;99.90;;;;;;5054010;28;20055;-84
2023/10/23 08:27:38;;;;;;;3.70;1.45;;;12.40;99.90;;;;;;5066790;28;20024;-85
2023/10/23 08:30:04;;;;;;;4.50;1.60;;;12.40;99.90;;;;;;5060806;28;20037;-84
2023/10/23 08:32:30;;;;;;;4.47;1.60;;;12.40;99.90;;;;;;5058381;28;20040;-84
2023/10/23 08:34:56;;;;;;;4.15;1.60;;;12.50;99.90;;;;;;5062148;28;20385;-84
2023/10/23 08:37:22;;;;;;;1.40;1.30;;;12.40;99.90;;;;;;5064901;28;20016;-85
2023/10/23 08:39:47;;;;;;;1.90;1.40;;;12.50;99.90;;;;;;5062899;28;20035;-82
2023/10/23 08:42:16;;;;;;;2.67;1.52;;;12.50;99.90;;;;;;5065453;28;20027;-83
2023/10/23 08:44:45;;;;;;;2.05;1.67;;;12.50;99.90;;;;;;5062925;28;20025;-83
2023/10/23 08:47:11;;;;;;;1.80;1.58;;;12.50;99.90;;;;;;5060537;28;20012;-83
2023/10/23 08:49:37;;;;;;;2.60;1.45;;;12.50;99.90;;;;;;5065869;28;20095;-83
2023/10/23 08:52:06;;;;;;;1.52;1.13;;;12.50;99.90;;;;;;5055698;28;20063;-84
2023/10/23 08:54:32;;;;;;;1.88;1.60;;;12.60;99.90;;;;;;5059232;28;20439;-84
2023/10/23 08:57:00;;;;;;;1.80;1.63;;;12.60;99.90;;;;;;5064663;28;20025;-83
2023/10/23 08:59:26;;;;;;;2.35;1.55;;;12.60;99.90;;;;;;5064550;28;20025;-83
2023/10/23 09:01:51;;;;;;;2.92;1.90;;;12.60;99.90;;;;;;5054132;28;20331;-83
2023/10/23 09:04:17;;;;;;;3.15;1.73;;;12.60;99.90;;;;;;5058121;28;20120;-83
2023/10/23 09:06:47;;;;;;;4.05;2.05;;;12.70;99.90;;;;;;5064079;28;20433;-83
2023/10/23 09:09:14;;;;;;;2.83;1.73;;;12.70;99.90;;;;;;5061833;28;20017;-83
2023/10/23 09:11:44;;;;;;;3.28;1.85;;;12.80;99.90;;;;;;5059708;28;20361;-84
2023/10/23 09:14:11;;;;;;;2.45;1.75;;;12.80;99.90;;;;;;5061137;28;20139;-83
2023/10/23 09:16:38;;;;;;;4.57;2.00;;;12.80;99.90;;;;;;5062505;28;20128;-83
2023/10/23 09:19:04;;;;;;;2.03;1.40;;;12.90;99.90;;;;;;5063056;28;20052;-83
2023/10/23 09:21:31;;;;;;;3.78;2.35;;;12.90;99.90;;;;;;5058706;28;20151;-83
2023/10/23 09:24:00;;;;;;;2.90;2.17;;;12.90;99.90;;;;;;5058120;28;20012;-83
2023/10/23 09:26:26;;;;;;;2.50;1.80;;;13.00;99.90;;;;;;5059242;28;20412;-82
2023/10/23 09:28:53;;;;;;;2.03;1.90;;;13.00;99.90;;;;;;5058205;28;20017;-82
2023/10/23 09:31:20;;;;;;;5.15;2.30;;;13.00;99.90;;;;;;5058221;28;20139;-84
2023/10/23 09:33:46;;;;;;;3.40;1.98;;;13.10;99.90;;;;;;5058503;28;20036;-83
2023/10/23 09:36:13;;;;;;;2.90;1.80;;;13.00;99.90;;;;;;5053938;28;20031;-84
2023/10/23 09:38:43;;;;;;;2.17;1.83;;;13.10;99.90;;;;;;5050239;28;20124;-83
2023/10/23 09:41:10;;;;;;;2.25;1.75;;;13.10;99.90;;;;;;5057476;28;20515;-83
2023/10/23 09:43:47;;;;;;;3.15;1.88;;;13.10;99.90;;;;;;5058820;28;20037;-83
2023/10/23 09:46:13;;;;;;;1.90;1.80;;;13.10;99.90;;;;;;5063296;28;20429;-83
2023/10/23 09:48:43;;;;;;;5.28;2.30;;;13.10;99.90;;;;;;5064023;28;20115;-83
2023/10/23 09:51:15;;;;;;;6.72;2.50;;;13.10;99.90;;;;;;5049266;28;20490;-84
2023/10/23 09:54:19;;;;;;;2.75;2.22;;;13.20;99.90;;;;;;5059587;28;20370;-84
2023/10/23 09:56:52;;;;;;;3.67;2.30;;;13.20;99.90;;;;;;5055036;28;20118;-84
2023/10/23 09:59:29;;;;;;;3.83;2.60;;;13.20;99.90;;;;;;5060080;28;20024;-83
2023/10/23 10:01:59;;;;;;;8.23;2.80;;;13.20;99.90;;;;;;5065619;28;20016;-83
2023/10/23 10:04:29;;;;;;;5.40;2.53;;;13.20;99.90;;;;;;5062328;28;20021;-82
2023/10/23 10:07:00;;;;;;;4.75;3.38;;;13.30;99.90;;;;;;5062969;28;20035;-83
2023/10/23 10:09:27;;;;;;;6.60;3.85;;;13.30;99.90;;;;;;5059968;28;20039;-84
2023/10/23 10:11:56;;;;;;;4.18;2.47;;;13.30;99.90;;;;;;5063502;28;20108;-83
2023/10/23 10:14:25;;;;;;;5.10;2.45;;;13.30;99.90;;;;;;5056212;28;20081;-83
2023/10/23 10:16:52;;;;;;;7.68;2.10;;;13.30;99.90;;;;;;5061824;28;20031;-83
2023/10/23 10:19:20;;;;;;;4.38;2.50;;;13.40;99.90;;;;;;5064666;28;20312;-83
2023/10/23 10:21:56;;;;;;;2.35;2.03;;;13.40;99.90;;;;;;5055757;28;20028;-84
2023/10/23 10:24:22;;;;;;;5.50;2.30;;;13.30;99.90;;;;;;5055701;28;20021;-83
2023/10/23 10:26:48;;;;;;;6.05;2.10;;;13.30;99.90;;;;;;5061631;28;20085;-83
2023/10/23 10:29:14;;;;;;;3.22;1.83;;;13.30;99.90;;;;;;5065373;28;20033;-83
2023/10/23 10:32:00;;;;;;;5.15;2.92;;;13.30;99.90;;;;;;5059734;28;20044;-84
2023/10/23 10:34:26;;;;;;;;;;;13.30;99.90;;;;;;5060112;28;20028;-84
2023/10/23 10:36:54;;;;;;;3.28;1.70;;;13.30;99.90;;;;;;5068814;28;19939;-84
2023/10/23 10:39:20;;;;;;;2.72;1.98;;;13.30;99.90;;;;;;5067423;28;20529;-84
2023/10/23 10:41:45;;;;;;;4.60;2.10;;;13.30;99.90;;;;;;5065573;28;20020;-83
2023/10/23 10:44:11;;;;;;;3.83;2.00;;;13.30;99.90;;;;;;5068659;28;20024;-83
2023/10/23 10:46:40;;;;;;;2.78;1.95;;;13.40;99.90;;;;;;5068434;28;20515;-83
2023/10/23 10:49:06;;;;;;;1.73;1.63;;;13.40;99.90;;;;;;5067661;28;20154;-84
2023/10/23 10:51:31;;;;;;;2.05;1.80;;;13.50;99.90;;;;;;5059223;28;20461;-83
2023/10/23 10:54:07;;;;;;;2.03;1.83;;;13.50;99.90;;;;;;5056558;28;20481;-83
2023/10/23 10:56:33;;;;;;;3.63;2.55;;;13.50;99.90;;;;;;5067353;28;20037;-83
2023/10/23 10:59:00;;;;;;;6.07;2.53;;;13.60;99.90;;;;;;5066063;28;20106;-83
2023/10/23 11:01:26;;;;;;;3.83;2.10;;;13.60;99.90;;;;;;5054200;28;20025;-83
2023/10/23 11:03:52;;;;;;;4.65;2.13;;;13.60;99.90;;;;;;5065056;28;20162;-84
2023/10/23 11:06:17;;;;;;;1.92;1.70;;;13.60;99.90;;;;;;5068631;28;20035;-84
2023/10/23 11:08:43;;;;;;;5.90;1.90;;;13.70;99.90;;;;;;5070436;28;20032;-83
2023/10/23 11:11:09;;;;;;;3.20;1.90;;;13.60;99.90;;;;;;5066461;28;20016;-84
2023/10/23 11:13:35;;;;;;;2.00;1.80;;;13.60;99.90;;;;;;5067140;28;20070;-84
2023/10/23 11:16:01;;;;;;;2.33;1.80;;;13.60;99.90;;;;;;5063463;28;20071;-84
2023/10/23 11:18:30;;;;;;;2.90;1.63;;;13.60;99.90;;;;;;5063944;28;20017;-83
2023/10/23 11:21:00;;;;;;;2.45;1.30;;;13.60;99.90;;;;;;5068328;28;20043;-83
2023/10/23 11:23:28;;;;;;;2.50;1.50;;;13.60;99.90;;;;;;5081071;28;20012;-82
2023/10/23 11:25:54;;;;;;;5.68;1.80;;;13.50;99.90;;;;;;5063302;28;20487;-82
2023/10/23 11:28:21;;;;;;;6.35;1.67;;;13.60;99.90;;;;;;5059391;28;20504;-82
2023/10/23 11:30:49;;;;;;;8.50;2.17;;;13.60;99.90;;;;;;5053681;28;20107;-81
2023/10/23 11:33:16;;;;;;;6.97;2.05;;;13.50;99.90;;;;;;5053361;28;20044;-82
2023/10/23 11:35:42;;;;;;;15.77;2.00;;;13.60;99.90;;;;;;5061709;28;20057;-82
2023/10/23 11:38:16;;;;;;;7.47;2.40;;;13.60;99.90;;;;;;5056022;28;20029;-82
2023/10/23 11:40:43;;;;;;;5.90;2.00;;;13.70;99.90;;;;;;5063473;28;20048;-82
2023/10/23 11:43:16;;;;;;;2.30;1.67;;;13.70;99.90;;;;;;5059925;28;20064;-82
2023/10/23 11:45:42;;;;;;;3.15;1.90;;;13.70;99.90;;;;;;5064474;28;20232;-82
2023/10/23 11:48:12;;;;;;;12.68;2.83;;;13.70;99.90;;;;;;5058815;28;20117;-83
2023/10/23 11:50:39;;;;;;;11.07;2.22;;;13.70;99.90;;;;;;5059121;28;20271;-85
2023/10/23 11:53:06;;;;;;;16.73;2.17;;;13.70;99.90;;;;;;5067549;28;20461;-82
2023/10/23 11:55:32;;;;;;;10.25;2.25;;;13.70;99.90;;;;;;5065389;28;20430;-83
2023/10/23 11:57:58;;;;;;;6.15;3.35;;;13.70;99.90;;;;;;5060587;28;20031;-82
2023/10/23 12:00:24;;;;;;;9.95;5.32;;;13.80;99.90;;;;;;5059100;28;20087;-82
2023/10/23 12:02:50;;;;;;;13.30;6.03;;;13.70;99.90;;;;;;5063998;28;20020;-82
2023/10/23 12:05:21;;;;;;;12.82;3.65;;;13.70;99.90;;;;;;5063014;28;20385;-82
2023/10/23 12:07:54;;;;;;;9.25;3.95;;;13.60;99.90;;;;;;5062552;28;20054;-82
2023/10/23 12:10:22;;;;;;;7.38;2.15;;;13.60;99.90;;;;;;5064170;28;20063;-82
2023/10/23 12:12:48;;;;;;;10.43;2.35;;;13.70;99.90;;;;;;5056277;28;20172;-83
2023/10/23 12:15:15;;;;;;;3.88;2.03;;;13.70;99.90;;;;;;5057096;28;20025;-83
2023/10/23 12:17:41;;;;;;;3.03;2.00;;;13.60;99.90;;;;;;5062017;28;20506;-82
2023/10/23 12:20:10;;;;;;;2.22;1.58;;;13.60;99.90;;;;;;5064955;28;20020;-82
2023/10/23 12:22:46;;;;;;;3.88;2.00;;;13.60;99.90;;;;;;5065556;28;20028;-82
2023/10/23 12:25:13;;;;;;;2.88;1.90;;;13.60;99.90;;;;;;5063459;28;20031;-83
2023/10/23 12:27:39;;;;;;;3.58;1.85;;;13.60;99.90;;;;;;5064722;28;20020;-83
2023/10/23 12:30:07;;;;;;;3.20;1.60;;;13.60;99.90;;;;;;5065198;28;20342;-82
2023/10/23 12:32:33;;;;;;;3.20;2.08;;;13.60;99.90;;;;;;5059779;28;20048;-82
2023/10/23 12:35:03;;;;;;;4.32;2.45;;;13.60;99.90;;;;;;5065716;28;20031;-83
2023/10/23 12:37:29;;;;;;;4.97;3.03;;;13.60;99.90;;;;;;5064463;28;20457;-82
2023/10/23 12:39:56;;;;;;;4.20;2.80;;;13.70;99.90;;;;;;5059807;28;20016;-83
2023/10/23 12:42:22;;;;;;;7.40;3.42;;;13.70;99.90;;;;;;5064626;28;20086;-83
2023/10/23 12:44:51;;;;;;;3.33;2.40;;;13.70;99.90;;;;;;5061581;28;20036;-82